Time;durP1;ratioP1;P1;durP2;ratioP2;P2;SDS_P1;SDS_P2;PMS_P1;PMS_P2;Temp;Humidity;BMP_temperature;BMP_pressure;BME280_temperature;BME280_humidity;BME280_pressure;Samples;Min_cycle;Max_cycle;Signal;HPM_P1;HPM_P2
2021/08/16 00:01:01;;;;;;;10.85;5.12;;;;;;;19.52;69.12;99493.21;1734088;80;20976;-55
2021/08/16 00:03:28;;;;;;;4.97;4.47;;;;;;;19.51;69.35;99491.48;1735072;81;21517;-55
2021/08/16 00:05:56;;;;;;;11.80;5.42;;;;;;;19.54;69.52;99494.45;1735538;81;21513;-56
2021/08/16 00:08:24;;;;;;;5.95;5.35;;;;;;;19.54;69.77;99489.85;1736297;81;21449;-56
2021/08/16 00:10:52;;;;;;;8.98;6.85;;;;;;;19.55;69.92;99495.68;1741216;81;21053;-55
2021/08/16 00:13:24;;;;;;;9.75;6.95;;;;;;;19.54;69.87;99489.85;1736140;80;21064;-54
2021/08/16 00:15:50;;;;;;;11.70;6.45;;;;;;;19.54;69.83;99488.98;1741831;81;21104;-55
2021/08/16 00:18:16;;;;;;;7.28;6.00;;;;;;;19.53;69.90;99492.22;1739165;81;21134;-56
2021/08/16 00:20:44;;;;;;;10.15;6.55;;;;;;;19.53;69.94;99489.98;1736984;81;21100;-55
2021/08/16 00:23:10;;;;;;;12.60;6.08;;;;;;;19.53;69.86;99486.75;1736286;81;21557;-54
2021/08/16 00:25:36;;;;;;;10.10;6.72;;;;;;;19.53;69.79;99484.52;1732566;81;21697;-54
2021/08/16 00:28:03;;;;;;;9.18;7.28;;;;;;;19.54;69.76;99487.62;1737672;80;21116;-55
2021/08/16 00:30:30;;;;;;;11.45;6.70;;;;;;;19.53;69.65;99485.89;1733839;81;21085;-55
2021/08/16 00:32:56;;;;;;;14.65;8.55;;;;;;;19.50;69.51;99477.46;1737377;81;21107;-56
2021/08/16 00:35:23;;;;;;;14.87;9.18;;;;;;;19.50;69.52;99481.55;1736362;81;21059;-53
2021/08/16 00:37:51;;;;;;;13.85;10.38;;;;;;;19.47;69.43;99483.22;1733289;81;21076;-56
2021/08/16 00:40:19;;;;;;;14.87;10.13;;;;;;;19.45;69.36;99478.85;1736972;80;21480;-55
2021/08/16 00:42:47;;;;;;;16.77;8.93;;;;;;;19.41;69.31;99490.53;1739651;81;21422;-54
2021/08/16 00:45:15;;;;;;;15.00;8.30;;;;;;;19.39;69.21;99484.87;1734227;81;21609;-54
2021/08/16 00:47:43;;;;;;;13.48;8.55;;;;;;;19.36;69.17;99491.95;1733733;81;21394;-54
2021/08/16 00:50:11;;;;;;;11.68;8.73;;;;;;;19.33;69.24;99489.48;1744683;81;20870;-54
2021/08/16 00:52:41;;;;;;;13.83;8.83;;;;;;;19.30;69.39;99489.27;1737174;81;20890;-54
2021/08/16 00:55:10;;;;;;;10.50;8.20;;;;;;;19.28;69.48;99489.90;1740776;81;20961;-56
2021/08/16 00:57:37;;;;;;;13.05;8.78;;;;;;;19.24;69.49;99489.79;1738071;81;21735;-55
2021/08/16 01:00:06;;;;;;;12.80;9.50;;;;;;;19.20;69.57;99490.58;1748585;81;20965;-54
2021/08/16 01:02:32;;;;;;;15.03;9.60;;;;;;;19.17;69.66;99490.84;1735920;79;21379;-55
2021/08/16 01:05:04;;;;;;;9.53;7.80;;;;;;;19.15;69.76;99487.38;1742366;79;20894;-55
2021/08/16 01:07:36;;;;;;;10.88;7.60;;;;;;;19.12;69.95;99482.20;1733934;79;20929;-55
2021/08/16 01:10:03;;;;;;;10.85;7.80;;;;;;;19.12;70.04;99482.70;1737245;79;21068;-54
2021/08/16 01:12:32;;;;;;;10.50;7.33;;;;;;;19.10;70.17;99480.59;1738144;79;21008;-60
2021/08/16 01:15:04;;;;;;;8.50;7.25;;;;;;;19.09;70.25;99487.05;1735794;79;21024;-58
2021/08/16 01:17:31;;;;;;;13.98;10.35;;;;;;;19.07;70.44;99481.72;1733866;79;21053;-59
2021/08/16 01:19:58;;;;;;;10.82;8.43;;;;;;;19.05;70.56;99478.28;1740606;79;20969;-61
2021/08/16 01:22:24;;;;;;;11.95;8.08;;;;;;;19.03;70.62;99478.05;1732818;80;20921;-61
2021/08/16 01:24:50;;;;;;;10.80;7.17;;;;;;;19.00;70.71;99478.30;1740495;79;21077;-60
2021/08/16 01:27:17;;;;;;;9.28;6.42;;;;;;;18.98;70.87;99484.38;1740420;79;21108;-60
2021/08/16 01:29:44;;;;;;;9.60;7.03;;;;;;;18.97;70.89;99478.59;1733673;79;21060;-57
2021/08/16 01:32:10;;;;;;;9.28;6.65;;;;;;;18.95;71.04;99475.13;1736578;79;22187;-60
2021/08/16 01:34:37;;;;;;;10.63;7.10;;;;;;;18.92;71.13;99476.74;1739486;79;21072;-60
2021/08/16 01:37:04;;;;;;;15.23;8.23;;;;;;;18.90;71.26;99460.51;1737996;79;21883;-56
2021/08/16 01:39:30;;;;;;;10.23;8.25;;;;;;;18.89;71.51;99466.95;1735804;79;21052;-60
2021/08/16 01:41:56;;;;;;;10.70;8.23;;;;;;;18.88;71.62;99464.73;1738109;79;21069;-61
2021/08/16 01:44:23;;;;;;;13.10;8.43;;;;;;;18.87;71.64;99458.94;1738694;79;21108;-57
2021/08/16 01:46:50;;;;;;;9.30;6.58;;;;;;;18.86;71.58;99462.66;1734283;79;21549;-60
2021/08/16 01:49:18;;;;;;;7.50;6.72;;;;;;;18.84;71.55;99463.28;1738076;79;21195;-58
2021/08/16 01:51:44;;;;;;;6.83;6.12;;;;;;;18.83;71.60;99463.41;1743544;79;21405;-61
2021/08/16 01:54:11;;;;;;;7.17;6.25;;;;;;;18.81;71.75;99459.44;1736035;79;21127;-56
2021/08/16 01:56:38;;;;;;;13.30;7.33;;;;;;;18.81;71.85;99462.67;1738788;79;21554;-61
2021/08/16 01:59:05;;;;;;;11.38;6.62;;;;;;;18.81;71.88;99466.27;1732205;79;21448;-60
2021/08/16 02:01:31;;;;;;;8.55;7.65;;;;;;;18.79;71.87;99464.19;1739877;79;21000;-61
2021/08/16 02:03:57;;;;;;;8.00;7.15;;;;;;;18.79;71.92;99462.83;1731614;79;21088;-59
2021/08/16 02:06:24;;;;;;;8.40;7.35;;;;;;;18.79;71.98;99461.96;1734037;79;21100;-60
2021/08/16 02:08:50;;;;;;;9.00;7.83;;;;;;;18.77;71.96;99459.36;1736295;79;21060;-59
2021/08/16 02:11:17;;;;;;;16.05;7.53;;;;;;;18.75;71.93;99467.30;1741694;79;21068;-59
2021/08/16 02:13:44;;;;;;;7.45;6.17;;;;;;;18.73;71.84;99469.28;1735665;79;21813;-58
2021/08/16 02:16:11;;;;;;;6.87;5.58;;;;;;;18.70;71.75;99469.08;1734634;79;21622;-58
2021/08/16 02:18:37;;;;;;;7.55;6.30;;;;;;;18.67;71.87;99472.05;1739203;79;21531;-57
2021/08/16 02:21:04;;;;;;;11.15;6.78;;;;;;;18.67;71.98;99476.14;1734814;79;21123;-58
2021/08/16 02:23:30;;;;;;;10.00;5.70;;;;;;;18.66;72.12;99471.68;1739149;79;21167;-59
2021/08/16 02:25:56;;;;;;;7.97;6.83;;;;;;;18.66;72.25;99476.27;1733357;79;21299;-60
2021/08/16 02:28:23;;;;;;;8.00;7.05;;;;;;;18.66;72.07;99481.72;1732592;79;21574;-57
2021/08/16 02:30:49;;;;;;;7.85;7.03;;;;;;;18.64;71.96;99485.94;1733404;79;21064;-59
2021/08/16 02:33:15;;;;;;;9.78;7.47;;;;;;;18.62;71.88;99487.95;1732002;79;21057;-57
2021/08/16 02:35:42;;;;;;;7.97;6.15;;;;;;;18.59;71.92;99486.84;1730290;79;21116;-60
2021/08/16 02:38:10;;;;;;;7.50;6.33;;;;;;;18.59;71.90;99488.70;1737180;79;21096;-57
2021/08/16 02:40:37;;;;;;;8.08;6.20;;;;;;;18.58;71.92;99493.78;1743432;79;20898;-59
2021/08/16 02:43:04;;;;;;;10.43;6.62;;;;;;;18.56;71.92;99495.23;1740310;79;21152;-60
2021/08/16 02:45:30;;;;;;;11.85;5.97;;;;;;;18.56;71.95;99484.83;1743530;79;21051;-60
2021/08/16 02:47:57;;;;;;;8.75;6.47;;;;;;;18.55;71.99;99486.69;1734124;79;21127;-58
2021/08/16 02:50:23;;;;;;;10.10;7.25;;;;;;;18.55;72.07;99496.22;1735857;79;21143;-58
2021/08/16 02:52:51;;;;;;;8.35;7.50;;;;;;;18.54;72.09;99489.07;1731057;79;21065;-60
2021/08/16 02:55:18;;;;;;;10.40;7.22;;;;;;;18.52;72.02;99493.28;1737844;79;21147;-59
2021/08/16 02:57:45;;;;;;;11.48;7.10;;;;;;;18.52;72.09;99497.37;1733661;79;21049;-58
2021/08/16 03:03:25;;;;;;;8.85;6.95;;;;;;;18.54;72.19;99493.99;1778120;78;28112;-58
2021/08/16 03:05:52;;;;;;;10.48;6.50;;;;;;;18.51;72.23;99500.22;1744905;80;22449;-57
2021/08/16 03:08:19;;;;;;;9.98;7.65;;;;;;;18.51;72.24;99490.69;1739352;80;21566;-56
2021/08/16 03:10:47;;;;;;;8.18;5.72;;;;;;;18.52;72.36;99502.83;1734063;80;20911;-58
2021/08/16 03:13:13;;;;;;;10.10;6.83;;;;;;;18.53;72.49;99495.02;1744732;80;21074;-58
2021/08/16 03:15:39;;;;;;;9.35;7.08;;;;;;;18.55;72.70;99497.59;1732598;80;21111;-61
2021/08/16 03:18:07;;;;;;;10.48;7.10;;;;;;;18.56;72.86;99496.59;1739671;80;21100;-61
2021/08/16 03:20:35;;;;;;;12.45;7.67;;;;;;;18.58;72.89;99493.78;1746809;80;22642;-57
2021/08/16 03:23:03;;;;;;;9.15;7.10;;;;;;;18.58;72.95;99501.46;1739811;80;20969;-56
2021/08/16 03:25:30;;;;;;;11.60;6.95;;;;;;;18.60;72.97;99495.88;1736134;80;21024;-57
2021/08/16 03:27:56;;;;;;;8.40;6.08;;;;;;;18.61;73.01;99494.39;1737316;80;21109;-60
2021/08/16 03:30:22;;;;;;;8.33;5.80;;;;;;;18.63;73.04;99488.29;1743950;80;21583;-60
2021/08/16 03:32:49;;;;;;;10.45;6.45;;;;;;;18.65;73.06;99493.61;1735755;80;21579;-60
2021/08/16 03:35:16;;;;;;;8.70;6.20;;;;;;;18.67;73.07;99497.95;1741927;80;21016;-60
2021/08/16 03:37:43;;;;;;;10.98;7.62;;;;;;;18.70;73.10;99496.34;1742598;80;21091;-61
2021/08/16 03:40:12;;;;;;;12.30;8.03;;;;;;;18.75;73.20;99494.56;1748401;80;21572;-59
2021/08/16 03:42:39;;;;;;;7.72;6.78;;;;;;;18.78;73.23;99490.22;1746002;80;21017;-59
2021/08/16 03:45:15;;;;;;;15.80;7.80;;;;;;;18.80;73.26;99490.44;1739306;79;21116;-60
2021/08/16 03:47:43;;;;;;;16.45;7.15;;;;;;;18.82;73.26;99500.72;1737886;80;20943;-60
2021/08/16 03:50:11;;;;;;;10.88;8.18;;;;;;;18.84;73.29;99489.19;1745449;80;22496;-61
2021/08/16 03:52:38;;;;;;;8.20;5.72;;;;;;;18.88;73.35;99485.71;1703648;81;21687;-59
2021/08/16 03:55:06;;;;;;;8.78;7.17;;;;;;;18.93;73.46;99481.20;1703084;81;21574;-62
2021/08/16 03:57:34;;;;;;;9.88;6.70;;;;;;;18.98;73.55;99481.66;1700057;81;21069;-59
2021/08/16 04:00:00;;;;;;;6.08;5.45;;;;;;;19.03;73.43;99491.19;1707796;81;21021;-61
2021/08/16 04:02:27;;;;;;;7.33;6.30;;;;;;;19.09;73.50;99480.23;1684151;82;21118;-59
2021/08/16 04:04:54;;;;;;;9.18;6.58;;;;;;;19.14;73.59;99484.27;1688610;82;21361;-59
2021/08/16 04:07:22;;;;;;;7.45;6.72;;;;;;;19.19;73.65;99483.39;1696188;82;21121;-56
2021/08/16 04:09:49;;;;;;;13.28;8.03;;;;;;;19.26;73.70;99479.61;1725982;80;22753;-57
2021/08/16 04:12:17;;;;;;;9.03;7.83;;;;;;;19.37;73.75;99478.17;1730225;80;20876;-56
2021/08/16 04:14:45;;;;;;;8.50;6.92;;;;;;;19.54;73.77;99486.26;1728348;80;20962;-57
2021/08/16 04:17:11;;;;;;;12.63;6.80;;;;;;;19.72;73.44;99479.15;1731043;80;20935;-61
2021/08/16 04:19:39;;;;;;;12.80;6.65;;;;;;;19.91;73.12;99482.41;1690554;82;20975;-60
2021/08/16 04:22:05;;;;;;;9.83;5.53;;;;;;;20.12;72.83;99479.61;1729498;80;21100;-61
2021/08/16 04:24:31;;;;;;;6.08;5.45;;;;;;;20.33;72.56;99473.00;1731617;80;20978;-61
2021/08/16 04:26:59;;;;;;;9.28;7.05;;;;;;;20.51;72.08;99477.80;1732209;80;21879;-61
2021/08/16 04:29:26;;;;;;;8.20;7.37;;;;;;;20.63;71.61;99481.63;1728671;80;21358;-58
2021/08/16 04:31:52;;;;;;;8.35;7.22;;;;;;;20.73;71.27;99473.42;1732862;80;20958;-60
2021/08/16 04:34:19;;;;;;;7.67;6.92;;;;;;;20.92;71.00;99473.92;1698627;82;21045;-62
2021/08/16 04:36:45;;;;;;;8.38;6.90;;;;;;;21.09;70.57;99474.03;1731829;80;20884;-62
2021/08/16 04:39:11;;;;;;;8.83;6.80;;;;;;;21.24;70.01;99479.06;1727454;80;21049;-62
2021/08/16 04:41:38;;;;;;;9.68;6.72;;;;;;;21.32;69.54;99479.19;1725261;80;21058;-57
2021/08/16 04:44:04;;;;;;;21.85;6.92;;;;;;;21.38;69.14;99473.10;1726647;80;21148;-59
2021/08/16 04:46:30;;;;;;;29.30;11.33;;;;;;;21.44;69.02;99475.23;1685181;82;21183;-55
2021/08/16 04:48:57;;;;;;;35.73;12.37;;;;;;;21.48;68.59;99467.09;1722189;80;21424;-56
2021/08/16 04:51:23;;;;;;;11.63;7.00;;;;;;;21.52;68.32;99472.64;1724612;80;21042;-57
2021/08/16 04:53:50;;;;;;;7.15;6.55;;;;;;;21.58;68.72;99480.75;1731458;80;21043;-57
2021/08/16 04:56:17;;;;;;;9.68;6.12;;;;;;;21.61;69.13;99479.06;1723584;80;21180;-59
2021/08/16 04:58:43;;;;;;;6.87;6.17;;;;;;;21.64;68.84;99476.89;1722939;80;21128;-58
2021/08/16 05:01:10;;;;;;;9.65;5.75;;;;;;;21.69;69.35;99474.55;1725011;80;21081;-58
2021/08/16 05:03:36;;;;;;;7.55;5.20;;;;;;;21.75;69.08;99471.73;1724564;80;21102;-57
2021/08/16 05:06:07;;;;;;;6.92;4.95;;;;;;;21.80;68.93;99474.37;1688537;82;21056;-59
2021/08/16 05:08:35;;;;;;;10.32;6.25;;;;;;;21.87;68.38;99478.22;1726047;80;21274;-58
2021/08/16 05:11:04;;;;;;;8.88;6.78;;;;;;;21.97;68.07;99474.56;1727970;80;20998;-58
2021/08/16 05:13:32;;;;;;;7.70;5.37;;;;;;;22.06;67.58;99473.69;1691064;82;21373;-58
2021/08/16 05:15:58;;;;;;;12.43;6.20;;;;;;;22.15;67.00;99467.28;1691098;82;21319;-58
2021/08/16 05:18:24;;;;;;;9.03;5.80;;;;;;;22.25;66.62;99471.69;1734634;80;21514;-59
2021/08/16 05:20:51;;;;;;;5.53;5.05;;;;;;;22.34;65.80;99476.75;1727086;80;21658;-63
2021/08/16 05:23:19;;;;;;;7.15;5.53;;;;;;;22.42;65.68;99465.87;1732679;80;20928;-62
2021/08/16 05:25:46;;;;;;;8.90;6.50;;;;;;;22.51;65.16;99474.53;1731865;80;21465;-59
2021/08/16 05:28:13;;;;;;;12.43;6.10;;;;;;;22.58;65.10;99474.25;1699404;82;21065;-59
2021/08/16 05:30:39;;;;;;;6.90;6.15;;;;;;;22.68;64.73;99476.05;1693201;82;21109;-59
2021/08/16 05:33:06;;;;;;;7.12;5.92;;;;;;;22.77;64.98;99475.14;1701343;82;21068;-58
2021/08/16 05:35:32;;;;;;;9.03;6.00;;;;;;;22.88;64.92;99477.11;1701863;82;21097;-60
2021/08/16 05:37:59;;;;;;;9.55;6.10;;;;;;;22.97;64.78;99480.27;1738882;80;21577;-61
2021/08/16 05:40:25;;;;;;;8.08;6.03;;;;;;;23.08;64.46;99487.40;1733294;80;21023;-60
2021/08/16 05:42:52;;;;;;;7.47;5.58;;;;;;;23.19;63.80;99487.66;1720749;80;21048;-58
2021/08/16 05:45:18;;;;;;;8.75;6.12;;;;;;;23.30;63.18;99489.64;1719318;80;21028;-60
2021/08/16 05:47:45;;;;;;;10.30;5.75;;;;;;;23.40;62.96;99490.87;1729283;80;21077;-59
2021/08/16 05:50:11;;;;;;;7.70;5.97;;;;;;;23.49;62.72;99493.20;1747427;80;21044;-60
2021/08/16 05:52:38;;;;;;;11.97;6.55;;;;;;;23.58;62.44;99492.23;1738930;80;21040;-60
2021/08/16 05:55:06;;;;;;;19.77;7.12;;;;;;;23.66;62.37;99487.64;1690575;82;21142;-58
2021/08/16 05:57:33;;;;;;;18.07;6.47;;;;;;;23.75;62.35;99488.55;1686773;82;20982;-61
2021/08/16 06:00:00;;;;;;;7.33;5.55;;;;;;;23.83;61.84;99486.34;1687598;82;21976;-61
2021/08/16 06:02:26;;;;;;;8.25;4.60;;;;;;;23.90;61.59;99480.05;1691626;82;21490;-58
2021/08/16 06:04:53;;;;;;;7.05;5.42;;;;;;;23.99;60.62;99474.91;1721420;80;21054;-59
2021/08/16 06:07:21;;;;;;;7.85;5.25;;;;;;;24.07;60.24;99463.93;1741171;80;21283;-58
2021/08/16 06:09:49;;;;;;;7.28;5.30;;;;;;;24.17;58.82;99460.18;1745312;80;21345;-58
2021/08/16 06:12:15;;;;;;;9.80;5.97;;;;;;;24.25;58.58;99462.98;1711364;82;21122;-59
2021/08/16 06:14:43;;;;;;;11.28;4.53;;;;;;;24.32;58.38;99463.55;1709049;82;21033;-60
2021/08/16 06:17:11;;;;;;;7.83;4.85;;;;;;;24.39;58.32;99465.97;1729002;80;21098;-59
2021/08/16 06:19:39;;;;;;;7.10;4.85;;;;;;;24.47;58.35;99473.38;1739285;80;21070;-59
2021/08/16 06:22:07;;;;;;;8.50;5.58;;;;;;;24.54;57.93;99474.41;1701827;82;21342;-58
2021/08/16 06:24:36;;;;;;;5.65;4.10;;;;;;;24.63;58.22;99473.39;1732172;80;23099;-58
2021/08/16 06:27:04;;;;;;;9.03;4.70;;;;;;;24.70;57.69;99471.67;1736443;80;21077;-62
2021/08/16 06:29:32;;;;;;;12.45;5.62;;;;;;;24.79;57.53;99472.55;1737827;80;20986;-61
2021/08/16 06:31:59;;;;;;;12.23;6.05;;;;;;;24.86;56.73;99463.42;1698245;82;21589;-59
2021/08/16 06:34:25;;;;;;;6.37;5.05;;;;;;;24.95;56.33;99469.82;1698387;82;21513;-58
2021/08/16 06:36:56;;;;;;;11.93;5.10;;;;;;;25.03;56.78;99472.57;1736310;80;21232;-58
2021/08/16 06:39:23;;;;;;;6.37;4.62;;;;;;;25.12;56.53;99473.42;1744327;80;21541;-60
2021/08/16 06:41:53;;;;;;;5.08;3.87;;;;;;;25.20;55.99;99477.55;1734899;80;21410;-59
2021/08/16 06:44:23;;;;;;;6.80;3.45;;;;;;;25.28;55.45;99470.65;1737334;80;21060;-59
2021/08/16 06:46:49;;;;;;;4.53;3.02;;;;;;;25.39;55.17;99473.05;1732785;80;21077;-62
2021/08/16 06:49:16;;;;;;;6.15;3.15;;;;;;;25.47;55.38;99471.66;1739507;80;22845;-59
2021/08/16 06:51:42;;;;;;;14.50;3.50;;;;;;;25.56;54.18;99473.88;1738742;80;21358;-58
2021/08/16 06:54:09;;;;;;;9.03;3.72;;;;;;;25.65;53.80;99471.98;1735352;80;21540;-58
2021/08/16 06:56:35;;;;;;;4.80;2.87;;;;;;;25.74;54.37;99470.92;1697462;82;21102;-63
2021/08/16 06:59:03;;;;;;;6.87;3.85;;;;;;;25.83;53.21;99468.48;1691189;82;21355;-58
2021/08/16 07:01:30;;;;;;;9.13;2.12;;;;;;;25.91;53.36;99476.20;1691551;82;21472;-58
2021/08/16 07:03:57;;;;;;;12.35;2.87;;;;;;;25.98;53.70;99470.31;1697202;82;21457;-58
2021/08/16 07:06:24;;;;;;;4.22;2.80;;;;;;;26.07;53.40;99469.75;1699235;82;21523;-62
2021/08/16 07:08:51;;;;;;;7.67;3.08;;;;;;;26.16;52.28;99476.95;1733239;80;20887;-62
2021/08/16 07:11:18;;;;;;;5.83;3.00;;;;;;;26.25;52.40;99480.01;1739101;80;20911;-65
2021/08/16 07:13:44;;;;;;;6.00;3.42;;;;;;;26.33;52.43;99472.23;1697280;82;21259;-59
2021/08/16 07:16:10;;;;;;;6.20;2.80;;;;;;;26.43;51.83;99470.63;1733244;80;20863;-62
2021/08/16 07:18:37;;;;;;;2.75;2.27;;;;;;;26.51;51.41;99471.95;1702640;82;21038;-60
2021/08/16 07:21:04;;;;;;;3.35;1.70;;;;;;;26.60;50.89;99474.48;1735424;80;20989;-62
2021/08/16 07:23:35;;;;;;;5.15;2.40;;;;;;;26.71;50.19;99479.56;1735668;80;20954;-62
2021/08/16 07:26:01;;;;;;;3.50;2.52;;;;;;;26.82;50.28;99473.28;1745483;80;21365;-59
2021/08/16 07:28:29;;;;;;;2.02;1.87;;;;;;;26.90;50.58;99476.83;1737247;80;20940;-61
2021/08/16 07:30:56;;;;;;;3.02;1.60;;;;;;;26.98;49.54;99474.55;1736188;80;21373;-58
2021/08/16 07:33:23;;;;;;;2.17;1.47;;;;;;;27.06;49.11;99480.01;1737789;80;20908;-62
2021/08/16 07:35:50;;;;;;;2.42;1.70;;;;;;;27.14;48.68;99481.31;1742186;80;20966;-63
2021/08/16 07:38:16;;;;;;;5.00;1.95;;;;;;;27.21;48.66;99475.93;1736476;80;22359;-63
2021/08/16 07:40:42;;;;;;;4.97;1.45;;;;;;;27.30;48.40;99479.81;1694922;82;21392;-59
2021/08/16 07:43:09;;;;;;;4.20;1.72;;;;;;;27.36;47.59;99479.05;1733590;80;21370;-59
2021/08/16 07:45:36;;;;;;;3.60;1.50;;;;;;;27.44;47.78;99473.96;1695634;82;21913;-62
2021/08/16 07:48:03;;;;;;;2.00;1.80;;;;;;;27.51;48.38;99479.06;1737412;80;21364;-60
2021/08/16 07:50:31;;;;;;;6.15;2.10;;;;;;;27.58;47.68;99481.44;1696062;82;21476;-60
2021/08/16 07:52:58;;;;;;;5.33;2.35;;;;;;;27.65;48.20;99482.39;1693652;82;21084;-63
2021/08/16 07:55:25;;;;;;;4.08;1.57;;;;;;;27.74;48.00;99481.25;1700277;82;21124;-63
2021/08/16 07:57:52;;;;;;;4.10;2.05;;;;;;;27.82;47.38;99478.39;1743027;80;20981;-59
2021/08/16 08:00:19;;;;;;;2.85;1.47;;;;;;;27.92;47.84;99482.77;1740713;80;20986;-66
2021/08/16 08:02:47;;;;;;;5.33;1.72;;;;;;;28.00;47.27;99482.15;1749164;80;21186;-62
2021/08/16 08:05:18;;;;;;;8.83;1.37;;;;;;;28.07;45.95;99480.33;1726916;80;22087;-62
2021/08/16 08:07:45;;;;;;;1.57;1.47;;;;;;;28.13;45.88;99482.87;1728929;80;22567;-59
2021/08/16 08:10:11;;;;;;;2.65;2.15;;;;;;;28.18;45.99;99483.16;1725950;80;21567;-60
2021/08/16 08:12:38;;;;;;;3.00;1.50;;;;;;;28.24;45.91;99480.48;1728336;80;20939;-63
2021/08/16 08:15:06;;;;;;;6.20;1.27;;;;;;;28.28;45.42;99475.42;1729311;80;21091;-62
2021/08/16 08:17:33;;;;;;;2.00;1.55;;;;;;;28.33;44.74;99479.84;1683261;82;21086;-62
2021/08/16 08:19:59;;;;;;;3.83;1.47;;;;;;;28.39;45.00;99483.77;1727866;80;21113;-59
2021/08/16 08:22:25;;;;;;;2.45;1.37;;;;;;;28.45;45.41;99477.44;1732513;80;21092;-61
2021/08/16 08:24:54;;;;;;;1.85;1.40;;;;;;;28.51;44.65;99477.50;1690031;82;21025;-62
2021/08/16 08:27:20;;;;;;;3.20;1.85;;;;;;;28.56;45.21;99476.41;1689535;82;21111;-62
2021/08/16 08:29:46;;;;;;;4.05;1.30;;;;;;;28.59;44.69;99476.52;1692329;82;21056;-60
2021/08/16 08:32:13;;;;;;;2.35;1.62;;;;;;;28.64;43.94;99477.34;1687099;82;21100;-61
2021/08/16 08:34:39;;;;;;;3.22;1.57;;;;;;;28.67;43.99;99475.02;1726705;80;21046;-62
2021/08/16 08:37:13;;;;;;;7.72;1.70;;;;;;;28.72;44.07;99476.69;1686936;82;21045;-60
2021/08/16 08:39:46;;;;;;;1.55;1.42;;;;;;;28.76;43.30;99475.74;1693668;82;21330;-66
2021/08/16 08:42:13;;;;;;;2.25;1.27;;;;;;;28.80;43.20;99481.27;1688539;82;21606;-61
2021/08/16 08:44:41;;;;;;;1.60;1.27;;;;;;;28.83;42.80;99478.11;1734119;80;20931;-62
2021/08/16 08:47:07;;;;;;;3.47;1.50;;;;;;;28.88;43.58;99471.44;1733876;80;20904;-61
2021/08/16 08:49:34;;;;;;;2.08;1.17;;;;;;;28.92;43.75;99474.98;1730041;80;21042;-61
2021/08/16 08:52:00;;;;;;;2.98;1.67;;;;;;;28.94;43.77;99477.03;1689184;82;21148;-61
2021/08/16 08:54:27;;;;;;;4.37;1.57;;;;;;;28.97;43.62;99478.03;1724570;80;21062;-64
2021/08/16 08:56:56;;;;;;;4.33;1.50;;;;;;;29.03;43.09;99479.14;1735538;80;20920;-58
2021/08/16 08:59:23;;;;;;;2.08;1.30;;;;;;;29.08;43.37;99475.27;1726063;80;21417;-58
2021/08/16 09:01:54;;;;;;;2.70;1.30;;;;;;;29.14;42.85;99470.83;1728751;80;21923;-60
2021/08/16 09:04:20;;;;;;;3.80;1.75;;;;;;;29.19;42.40;99463.62;1728225;80;22582;-64
2021/08/16 09:06:47;;;;;;;2.75;1.10;;;;;;;29.23;42.30;99466.86;1733629;80;21014;-63
2021/08/16 09:09:13;;;;;;;1.25;1.15;;;;;;;29.27;42.20;99468.16;1735781;80;21517;-59
2021/08/16 09:11:48;;;;;;;3.58;1.40;;;;;;;29.29;41.33;99472.45;1729133;80;21074;-62
2021/08/16 09:14:14;;;;;;;4.70;1.30;;;;;;;29.33;41.13;99468.23;1732931;80;21038;-57
2021/08/16 09:16:43;;;;;;;4.25;1.35;;;;;;;29.38;41.51;99469.56;1728840;80;21133;-61
2021/08/16 09:19:21;;;;;;;4.15;1.52;;;;;;;29.42;41.61;99464.81;1733693;80;21437;-61
2021/08/16 09:22:02;;;;;;;1.50;1.20;;;;;;;29.45;41.35;99467.16;1734270;80;20978;-61
2021/08/16 09:24:24;;;;;;;2.70;1.62;;;;;;;29.51;41.00;99461.36;1723056;80;21583;-63
2021/08/16 09:26:51;;;;;;;6.28;1.72;;;;;;;29.54;41.05;99467.34;1731192;80;20974;-61
2021/08/16 09:29:21;;;;;;;4.67;1.55;;;;;;;29.59;41.59;99455.66;1693098;82;22179;-64
2021/08/16 09:32:04;;;;;;;1.50;1.22;;;;;;;29.63;40.65;99448.09;1688328;82;21560;-58
2021/08/16 09:34:40;;;;;;;2.58;1.12;;;;;;;29.68;40.80;99454.44;1726455;80;20990;-59
2021/08/16 09:37:24;;;;;;;3.30;1.20;;;;;;;29.72;39.83;99443.24;1726990;80;21010;-62
2021/08/16 09:40:15;;;;;;;2.30;1.22;;;;;;;29.73;39.85;99447.20;1728888;80;20959;-63
2021/08/16 09:42:49;;;;;;;2.05;1.10;;;;;;;29.74;38.63;99445.29;1727534;80;22295;-63
2021/08/16 09:45:32;;;;;;;4.55;1.05;;;;;;;29.78;38.49;99442.41;1727967;80;21051;-58
2021/08/16 09:48:00;;;;;;;4.73;0.97;;;;;;;29.80;38.47;99442.22;1712619;80;21089;-62
2021/08/16 09:50:40;;;;;;;6.50;1.20;;;;;;;29.85;38.96;99436.92;1689407;82;21034;-61
2021/08/16 09:53:15;;;;;;;2.52;1.10;;;;;;;29.91;37.82;99430.55;1727110;80;20944;-60
2021/08/16 09:55:44;;;;;;;4.20;1.12;;;;;;;29.98;37.41;99430.94;1725558;80;22592;-59
2021/08/16 09:58:13;;;;;;;2.55;1.02;;;;;;;30.00;37.47;99423.27;1725120;80;21037;-62
2021/08/16 10:00:44;;;;;;;1.57;1.20;;;;;;;30.02;36.55;99418.91;1728752;80;21367;-62
2021/08/16 10:03:12;;;;;;;4.12;1.15;;;;;;;30.06;36.42;99432.14;1689199;82;21014;-63
2021/08/16 10:05:40;;;;;;;9.90;1.72;;;;;;;30.11;37.00;99430.69;1731039;80;21010;-63
2021/08/16 10:08:08;;;;;;;1.35;1.05;;;;;;;30.14;36.65;99426.08;1729283;80;21048;-61
2021/08/16 10:10:37;;;;;;;1.75;1.42;;;;;;;30.18;36.56;99426.86;1731792;80;20938;-63
2021/08/16 10:13:05;;;;;;;2.67;1.00;;;;;;;30.22;36.75;99420.34;1732224;80;20856;-60
2021/08/16 10:15:41;;;;;;;3.10;1.10;;;;;;;30.27;36.39;99417.82;1692164;82;20883;-59
2021/08/16 10:18:14;;;;;;;3.55;1.10;;;;;;;30.32;36.55;99425.84;1688357;82;20934;-60
2021/08/16 10:20:41;;;;;;;;;;;;;;;30.35;36.23;99414.86;1692250;82;21143;-62
2021/08/16 10:23:22;;;;;;;1.72;1.00;;;;;;;30.38;36.39;99419.97;1653386;83;20208;-60
2021/08/16 10:25:49;;;;;;;3.87;1.10;;;;;;;30.39;35.52;99413.36;1724795;80;20920;-63
2021/08/16 10:28:33;;;;;;;3.10;1.37;;;;;;;30.42;35.70;99410.17;1695099;82;20954;-58
2021/08/16 10:31:01;;;;;;;2.60;1.00;;;;;;;30.43;35.62;99410.50;1731126;80;21378;-59
2021/08/16 10:33:28;;;;;;;2.67;1.00;;;;;;;30.45;36.05;99400.05;1731791;80;21791;-59
2021/08/16 10:35:55;;;;;;;3.55;1.07;;;;;;;30.47;36.82;99406.22;1733846;80;20975;-61
2021/08/16 10:38:21;;;;;;;1.90;1.10;;;;;;;30.50;35.90;99402.17;1727863;80;20931;-62
2021/08/16 10:40:53;;;;;;;5.58;1.30;;;;;;;30.47;35.57;99398.74;1687824;82;21033;-62
2021/08/16 10:43:20;;;;;;;1.20;0.90;;;;;;;30.46;36.09;99392.01;1684070;83;20987;-60
2021/08/16 10:45:51;;;;;;;7.37;1.30;;;;;;;30.43;35.71;99398.86;1682079;83;21056;-59
2021/08/16 10:48:29;;;;;;;1.90;0.98;;;;;;;30.41;35.04;99394.57;1676837;83;21059;-59
2021/08/16 10:51:06;;;;;;;2.65;1.05;;;;;;;30.37;35.37;99395.52;1723981;80;21094;-60
2021/08/16 10:53:54;;;;;;;1.82;1.02;;;;;;;30.37;35.93;99401.06;1726768;80;21104;-59
2021/08/16 10:56:22;;;;;;;1.57;1.10;;;;;;;30.38;36.64;99393.06;1720127;80;21520;-64
2021/08/16 10:58:49;;;;;;;1.45;1.07;;;;;;;30.41;36.77;99398.73;1726848;80;21085;-58
2021/08/16 11:01:36;;;;;;;2.33;1.05;;;;;;;30.45;36.96;99398.09;1690971;82;20907;-61
2021/08/16 11:04:05;;;;;;;2.65;1.00;;;;;;;30.47;35.69;99402.05;1721726;80;21125;-61
2021/08/16 11:06:32;;;;;;;3.70;1.75;;;;;;;30.48;36.26;99395.44;1748043;80;21089;-59
2021/08/16 11:09:03;;;;;;;5.45;1.50;;;;;;;30.48;36.28;99399.07;1739409;80;21113;-61
2021/08/16 11:11:30;;;;;;;2.52;1.10;;;;;;;30.45;35.68;99390.32;1742385;80;21848;-58
2021/08/16 11:14:06;;;;;;;1.60;1.22;;;;;;;30.41;35.66;99392.66;1700557;82;20968;-58
2021/08/16 11:16:32;;;;;;;1.15;1.00;;;;;;;30.39;35.61;99387.84;1683451;82;21137;-60
2021/08/16 11:19:00;;;;;;;2.85;1.05;;;;;;;30.40;36.03;99385.91;1683465;82;21086;-59
2021/08/16 11:21:30;;;;;;;4.50;1.00;;;;;;;30.41;36.78;99385.71;1706951;82;21107;-60
2021/08/16 11:24:00;;;;;;;1.50;0.98;;;;;;;30.45;37.08;99375.05;1703515;82;21152;-60
2021/08/16 11:26:26;;;;;;;1.27;1.10;;;;;;;30.47;37.03;99375.14;1699491;82;21135;-62
2021/08/16 11:29:04;;;;;;;3.27;0.90;;;;;;;30.51;36.96;99376.12;1697308;82;21089;-58
2021/08/16 11:31:32;;;;;;;3.92;0.90;;;;;;;30.53;36.61;99377.66;1706191;82;21109;-61
2021/08/16 11:34:08;;;;;;;1.70;1.00;;;;;;;30.57;36.68;99373.91;1698758;82;21005;-59
2021/08/16 11:36:36;;;;;;;6.30;1.10;;;;;;;30.58;36.47;99376.48;1700017;82;21150;-59
2021/08/16 11:39:04;;;;;;;1.30;0.95;;;;;;;30.57;36.03;99376.16;1686120;82;20951;-62